Latest Weather Observations for Mandurah

IDW60901

Issued at 11:55 pm WST Friday 28 November 2014 (issued every 10 minutes, with the page automatically refreshed every 10 minutes)

About weather observations | Map of Perth area stations | Latest observations for Perth area | Other Formats
Station Details ID: 009977 Name: MANDURAH Lat: -32.52 Lon: 115.71 Height: 3.0 m
Data from the previous 72 hours. | See also: Recent months at Mandurah
Date/Time
WST
Tmp

°C
App
Tmp
°C
Dew
Point
°C
Rel
Hum
%
Delta-T

°C
Wind Press
QNH
hPa
Press
MSL
hPa
Rain
since
9 am
mm
Dir
 
Spd
km/h
Gust
km/h
Spd
kts
Gust
kts
28/11:30pm 18.8 17.4 15.5 81 1.9 SSW 17 28 9 15 1013.3 1013.3 0.0
28/11:00pm 18.7 17.4 15.8 83 1.7 SSW 17 26 9 14 1013.3 1013.3 0.0
28/10:30pm 18.7 17.1 16.1 85 1.5 SSW 19 32 10 17 1013.5 1013.5 0.0
28/10:00pm 18.7 18.2 16.9 89 1.1 SSW 15 32 8 17 1013.5 1013.5 0.0
28/09:30pm 18.8 18.2 17.5 92 0.8 SSW 17 26 9 14 1013.4 1013.4 0.0
28/09:00pm 18.9 17.7 17.0 89 1.1 SSW 19 28 10 15 1013.4 1013.4 0.0
28/08:30pm 18.9 18.4 16.9 88 1.2 SSW 15 24 8 13 1013.3 1013.3 0.0
28/08:00pm 18.8 17.3 16.8 88 1.2 SSW 20 30 11 16 1013.0 1013.0 0.0
28/07:30pm 19.2 18.0 17.0 87 1.3 SSW 19 35 10 19 1012.6 1012.6 0.0
28/07:00pm 19.4 17.8 16.4 83 1.8 SSW 20 33 11 18 1012.6 1012.6 0.0
28/06:30pm 19.9 18.9 16.7 82 1.9 SSW 17 24 9 13 1012.5 1012.5 0.0
28/06:00pm 20.1 18.6 16.7 81 2.1 SW 20 30 11 16 1012.2 1012.2 0.0
28/05:30pm 20.1 18.7 17.1 83 1.8 SW 20 32 11 17 1011.8 1011.8 0.0
28/05:00pm 20.2 18.0 17.0 82 1.9 SW 24 33 13 18 1011.5 1011.5 0.0
28/04:30pm 20.3 18.6 17.3 83 1.8 SW 22 33 12 18 1011.1 1011.1 0.0
28/04:00pm 20.5 18.4 17.1 81 2.1 SW 24 33 13 18 1011.0 1011.0 0.0
28/03:30pm 21.6 19.4 16.8 74 2.9 SW 24 37 13 20 1010.8 1010.8 0.0
28/03:00pm 22.0 19.6 16.5 71 3.3 SW 24 37 13 20 1010.7 1010.7 0.0
28/02:30pm 22.0 19.9 16.3 70 3.4 SW 22 30 12 16 1010.8 1010.8 0.0
28/02:00pm 21.1 19.5 16.1 73 3.0 SW 19 28 10 15 1011.2 1011.2 0.0
28/01:30pm 22.6 21.6 17.5 73 3.2 WSW 19 26 10 14 1011.3 1011.3 0.0
28/01:00pm 22.5 21.1 16.5 69 3.7 WSW 19 24 10 13 1011.1 1011.1 0.0
28/12:30pm 22.9 22.3 17.6 72 3.3 WSW 17 26 9 14 1011.1 1011.1 0.0
28/12:00pm 21.6 20.5 17.4 77 2.6 WSW 19 28 10 15 1011.2 1011.2 0.0
28/11:30am 21.7 21.2 17.7 78 2.5 WSW 17 22 9 12 1011.0 1011.0 0.0
28/11:00am 21.2 20.1 17.2 78 2.5 SW 19 24 10 13 1010.9 1010.9 0.0
28/10:30am 21.3 20.8 17.9 81 2.1 SW 17 24 9 13 1010.8 1010.8 0.0
28/10:00am 21.6 21.4 17.6 78 2.5 SSW 15 20 8 11 1010.6 1010.6 0.0
28/09:30am 20.9 20.4 17.9 83 1.9 SSW 17 26 9 14 1010.4 1010.4 0.0
28/09:00am 20.5 21.3 18.1 86 1.5 S 11 19 6 10 1010.3 1010.3 8.4
28/08:30am 20.3 20.3 18.1 87 1.4 S 15 22 8 12 1010.2 1010.2 8.4
28/08:00am 20.3 21.1 18.1 87 1.4 S 11 19 6 10 1010.2 1010.2 8.4
28/07:30am 20.4 22.4 19.1 92 0.8 S 7 13 4 7 1010.0 1010.0 8.4
28/07:00am 19.2 21.3 18.0 93 0.7 S 4 7 2 4 1009.9 1009.9 8.4
28/06:30am 18.3 19.9 18.3 100 0.0 SW 7 9 4 5 1009.9 1009.9 8.4
28/06:00am 17.3 19.8 17.3 100 0.0 CALM 0 4 0 2 1009.7 1009.7 8.4
28/05:30am 16.9 18.5 16.9 100 0.0 SSE 4 4 2 2 1009.4 1009.4 8.4
28/05:00am 16.9 18.5 16.9 100 0.0 SE 4 6 2 3 1009.1 1009.1 8.4
28/04:30am 17.3 18.7 17.3 100 0.0 SE 6 9 3 5 1008.9 1008.9 8.4
28/04:00am 18.1 19.6 18.1 100 0.0 SSE 7 9 4 5 1008.6 1008.6 8.4
28/03:30am 18.2 19.8 18.2 100 0.0 S 7 9 4 5 1008.7 1008.7 8.4
28/03:00am 18.3 20.1 18.3 100 0.0 S 6 9 3 5 1008.8 1008.8 8.4
28/02:30am 18.3 20.5 18.3 100 0.0 SSE 4 6 2 3 1009.0 1009.0 8.4
28/02:00am 18.4 20.6 18.4 100 0.0 SSE 4 6 2 3 1009.1 1009.1 8.4
28/01:30am 18.4 20.2 18.4 100 0.0 SSE 6 7 3 4 1009.3 1009.3 8.4
28/01:00am 18.4 20.6 18.4 100 0.0 SSW 4 6 2 3 1009.3 1009.3 8.4
28/12:30am 18.6 20.5 18.6 100 0.0 S 6 9 3 5 1009.3 1009.3 8.4
28/12:00am 18.9 21.0 18.9 100 0.0 SSE 6 7 3 4 1009.3 1009.3 8.4
 
Date/Time
WST
Tmp

°C
App
Tmp
°C
Dew
Point
°C
Rel
Hum
%
Delta-T

°C
Wind Press
QNH
hPa
Press
MSL
hPa
Rain
since
9 am
mm
Dir
 
Spd
km/h
Gust
km/h
Spd
kts
Gust
kts
27/11:30pm 19.0 21.1 19.0 100 0.0 S 6 7 3 4 1009.4 1009.4 8.4
27/11:00pm 19.1 21.6 19.1 100 0.0 S 4 6 2 3 1009.2 1009.2 8.4
27/10:30pm 19.2 21.8 19.2 100 0.0 S 4 6 2 3 1009.3 1009.3 8.4
27/10:00pm 19.6 22.4 19.6 100 0.0 S 4 6 2 3 1009.4 1009.4 8.4
27/09:30pm 20.0 22.5 19.0 94 0.6 SE 4 6 2 3 1009.5 1009.5 8.4
27/09:00pm 20.4 22.4 19.1 92 0.8 SSE 7 11 4 6 1009.4 1009.4 8.4
27/08:30pm 20.6 22.5 18.9 90 1.1 S 7 9 4 5 1009.1 1009.1 8.4
27/08:00pm 20.8 22.5 18.4 86 1.5 SSE 7 11 4 6 1009.1 1009.1 8.4
27/07:30pm 21.1 22.6 18.1 83 1.9 SSE 7 13 4 7 1009.0 1009.0 8.4
27/07:00pm 21.1 22.1 17.7 81 2.1 S 9 15 5 8 1009.1 1009.1 8.4
27/06:30pm 21.6 22.4 17.4 77 2.6 S 9 15 5 8 1008.9 1008.9 8.4
27/06:00pm 21.7 22.8 18.1 80 2.2 SW 9 15 5 8 1009.0 1009.0 8.4
27/05:30pm 23.0 24.9 18.5 76 2.8 WNW 6 15 3 8 1008.8 1008.8 8.4
27/05:00pm 22.0 23.9 17.6 76 2.7 NNE 4 6 2 3 1008.4 1008.4 8.4
27/04:30pm 22.0 23.6 18.2 79 2.4 NE 7 9 4 5 1008.6 1008.6 8.4
27/04:00pm 19.7 20.1 18.2 91 0.9 E 13 20 7 11 1008.7 1008.7 8.4
27/03:30pm 19.4 20.4 19.4 100 0.0 E 13 22 7 12 1009.8 1009.8 8.2
27/03:00pm 19.1 20.2 18.8 98 0.2 ESE 11 17 6 9 1010.4 1010.4 7.8
27/02:30pm 19.3 20.8 18.8 97 0.3 N 9 15 5 8 1011.6 1011.6 7.0
27/02:00pm 20.6 21.7 18.0 85 1.6 S 9 15 5 8 1010.7 1010.7 1.4
27/01:30pm 21.3 22.2 18.5 84 1.8 SSE 11 17 6 9 1010.8 1010.8 1.0
27/01:00pm 22.9 24.5 18.2 75 2.9 SSW 7 11 4 6 1011.2 1011.2 1.0
27/12:30pm 22.7 24.9 18.3 76 2.8 N 4 6 2 3 1011.4 1011.4 1.0
27/12:00pm 22.8 25.2 18.8 78 2.5 E 4 9 2 5 1011.5 1011.5 1.0
27/11:30am 21.6 24.0 18.8 84 1.8 SE 4 6 2 3 1011.8 1011.8 1.0
27/11:00am 21.3 23.1 18.3 83 1.9 NNW 6 9 3 5 1012.5 1012.5 0.8
27/10:30am 20.7 22.0 17.5 82 2.0 W 7 11 4 6 1012.2 1012.2 0.6
27/10:00am 20.3 23.8 19.6 96 0.4 CALM 0 2 0 1 1012.1 1012.1 0.6
27/09:30am 20.0 22.6 20.0 100 0.0 SSE 6 7 3 4 1011.8 1011.8 0.6
27/09:00am 19.6 22.7 19.6 100 0.0 E 2 6 1 3 1012.1 1012.1 10.8
27/08:30am 19.4 21.7 19.4 100 0.0 E 6 9 3 5 1011.6 1011.6 9.6
27/08:00am 19.7 21.9 19.7 100 0.0 N 7 11 4 6 1012.7 1012.7 8.2
27/07:30am 19.9 21.0 18.9 94 0.6 N 11 13 6 7 1012.4 1012.4 6.4
27/07:00am 20.4 21.4 17.8 85 1.6 N 9 11 5 6 1011.9 1011.9 5.2
27/06:30am 20.3 21.5 16.9 81 2.1 SSE 6 7 3 4 1011.3 1011.3 5.2
27/06:00am 20.2 21.3 16.6 80 2.2 SE 6 9 3 5 1011.3 1011.3 5.2
27/05:30am 20.0 21.4 17.4 85 1.6 SSE 6 7 3 4 1010.7 1010.7 5.2
27/05:00am 20.1 21.4 17.5 85 1.6 SSE 7 11 4 6 1010.8 1010.8 5.2
27/04:30am 20.2 20.9 16.2 78 2.4 S 7 9 4 5 1010.5 1010.5 5.2
27/04:00am 20.6 20.8 17.6 83 1.8 SW 13 19 7 10 1009.9 1009.9 5.2
27/03:30am 20.8 21.4 15.8 73 3.0 W 7 15 4 8 1009.4 1009.4 5.2
27/03:00am 21.6 22.3 16.1 71 3.3 N 7 15 4 8 1009.0 1009.0 5.2
27/02:30am 21.4 20.2 16.1 72 3.2 NE 17 20 9 11 1008.1 1008.1 5.2
27/02:00am 21.0 20.2 16.0 73 3.0 NE 15 19 8 10 1008.4 1008.4 5.2
27/01:30am 20.5 19.8 15.3 72 3.1 E 13 20 7 11 1008.3 1008.3 5.2
27/01:00am 20.3 20.5 15.7 75 2.7 E 9 17 5 9 1008.5 1008.5 5.2
27/12:30am 20.6 19.7 15.8 74 2.9 E 15 26 8 14 1008.9 1008.9 5.2
27/12:00am 20.7 19.4 15.7 73 3.0 E 17 28 9 15 1009.0 1009.0 5.2
 
Date/Time
WST
Tmp

°C
App
Tmp
°C
Dew
Point
°C
Rel
Hum
%
Delta-T

°C
Wind Press
QNH
hPa
Press
MSL
hPa
Rain
since
9 am
mm
Dir
 
Spd
km/h
Gust
km/h
Spd
kts
Gust
kts
26/11:30pm 20.7 19.7 15.7 73 3.0 E 15 22 8 12 1009.3 1009.3 5.2
26/11:00pm 20.4 19.9 16.0 76 2.6 ESE 13 19 7 10 1009.3 1009.3 5.2
26/10:30pm 20.4 20.5 16.6 79 2.3 SE 11 17 6 9 1009.5 1009.5 5.2
26/10:00pm 20.6 20.6 17.2 81 2.1 SE 13 20 7 11 1009.9 1009.9 5.2
26/09:30pm 20.1 20.4 17.1 83 1.8 SE 11 19 6 10 1010.7 1010.7 5.2
26/09:00pm 20.0 18.8 18.5 91 0.9 SE 22 37 12 20 1009.3 1009.3 5.2
26/08:58pm 20.1 19.6 18.6 91 0.9 SSE 19 30 10 16 1009.9 1009.9 5.2
26/08:30pm 20.0 19.6 18.1 89 1.2 SE 17 22 9 12 1012.0 1012.0 5.2
26/08:00pm 20.0 20.3 18.7 92 0.8 ESE 15 22 8 12 1012.1 1012.1 5.2
26/07:30pm 20.3 19.9 18.1 87 1.4 ESE 17 24 9 13 1011.8 1011.8 4.6
26/07:00pm 21.3 22.0 17.9 81 2.1 ESE 11 17 6 9 1012.1 1012.1 3.6
26/06:30pm 22.1 21.7 17.2 74 3.0 NNE 15 20 8 11 1012.0 1012.0 2.8
26/06:00pm 22.5 25.6 18.7 79 2.4 CALM 0 2 0 1 1011.2 1011.2 2.4
26/05:30pm 22.9 23.7 17.4 71 3.4 W 9 13 5 7 1010.0 1010.0 2.4
26/05:00pm 23.2 23.7 15.5 62 4.6 E 7 17 4 9 1009.3 1009.3 2.4
26/04:30pm 23.0 22.0 16.5 67 4.0 ESE 17 24 9 13 1007.7 1007.7 2.2
26/04:00pm 25.9 23.1 14.4 49 6.9 SE 22 37 12 20 1007.6 1007.6 0.6
26/03:30pm 27.0 24.1 14.1 45 7.7 SE 22 32 12 17 1007.6 1007.6 0.6
26/03:00pm 25.2 23.3 14.3 50 6.5 SE 17 24 9 13 1008.3 1008.3 0.6
26/02:30pm 23.5 20.7 15.3 60 4.9 SE 24 37 13 20 1008.5 1008.5 0.6
26/02:29pm 23.4 20.7 15.5 61 4.7 SE 24 32 13 17 1008.7 1008.7 0.6
26/02:00pm 24.8 24.8 16.2 58 5.3 SSE 11 13 6 7 1010.7 1010.7 0.2
26/01:30pm 25.7 26.1 15.4 53 6.2 S 7 17 4 9 1010.5 1010.5 0.2
26/01:00pm 27.9 26.4 11.9 37 9.2 SE 11 19 6 10 1009.9 1009.9 0.0
26/12:30pm 27.5 24.9 10.7 35 9.5 ESE 15 22 8 12 1010.2 1010.2 0.0
26/12:00pm 30.0 27.9 11.0 31 10.9 ESE 13 28 7 15 1010.4 1010.4 0.0
26/11:30am 28.2 25.7 10.9 34 9.8 E 15 22 8 12 1010.7 1010.7 0.0
26/11:00am 25.1 22.4 10.2 39 8.3 ESE 15 20 8 11 1011.2 1011.2 0.0
26/10:30am 24.6 21.8 10.1 40 8.0 E 15 22 8 12 1011.8 1011.8 0.0
26/10:00am 25.0 22.1 9.7 38 8.4 E 15 22 8 12 1012.1 1012.1 0.0
26/09:30am 23.7 21.7 10.0 42 7.5 E 11 17 6 9 1012.4 1012.4 0.0
26/09:00am 22.8 20.8 10.3 45 6.8 E 11 19 6 10 1012.6 1012.6 0.0
26/08:30am 22.6 19.6 9.4 43 7.1 E 15 24 8 13 1012.6 1012.6 0.0
26/08:00am 22.6 20.0 9.4 43 7.1 E 13 24 7 13 1012.8 1012.8 0.0
26/07:30am 21.9 18.6 9.4 45 6.7 E 17 28 9 15 1012.8 1012.8 0.0
26/07:00am 21.2 17.8 9.1 46 6.4 E 17 26 9 14 1012.9 1012.9 0.0
26/06:30am 20.7 16.9 9.0 47 6.2 E 19 30 10 16 1012.9 1012.9 0.0
26/06:00am 20.4 16.4 9.0 48 6.0 E 20 32 11 17 1012.7 1012.7 0.0
26/05:30am 20.3 16.3 8.9 48 6.0 E 20 33 11 18 1012.7 1012.7 0.0
26/05:00am 20.4 15.6 9.0 48 6.0 E 24 43 13 23 1012.6 1012.6 0.0
26/04:30am 20.4 16.4 9.0 48 6.0 E 20 41 11 22 1012.8 1012.8 0.0
26/04:00am 20.4 17.7 9.0 48 6.0 E 13 26 7 14 1012.5 1012.5 0.0
26/03:30am 20.6 17.9 8.9 47 6.2 E 13 22 7 12 1012.6 1012.6 0.0
26/03:00am 21.1 17.7 9.0 46 6.4 E 17 30 9 16 1012.3 1012.3 0.0
26/02:30am 21.3 17.3 8.9 45 6.6 E 20 39 11 21 1012.2 1012.2 0.0
26/02:00am 21.6 17.6 9.2 45 6.6 E 20 33 11 18 1012.2 1012.2 0.0
26/01:30am 21.9 16.8 9.1 44 6.8 E 26 39 14 21 1012.2 1012.2 0.0
26/01:00am 22.3 17.9 9.1 43 7.1 E 22 44 12 24 1012.5 1012.5 0.0
26/12:30am 22.7 18.8 9.5 43 7.1 E 20 46 11 25 1012.7 1012.7 0.0
26/12:00am 22.9 18.7 9.7 43 7.2 ESE 22 37 12 20 1012.8 1012.8 0.0

Latest Capital City Observations: Canberra | Sydney | Melbourne | Brisbane | Adelaide | Perth | Hobart | Darwin

Other Formats:

Comma delimited format used in spreadsheet applications
http://www.bom.gov.au/fwo/IDW60901/IDW60901.94605.axf

JavaScript Object Notation format (JSON) in row-major order
http://www.bom.gov.au/fwo/IDW60901/IDW60901.94605.json